sensor_id;sensor_type;location;lat;lon;timestamp;P1;durP1;ratioP1;P2;durP2;ratioP2
13335;SDS011;6737;51.480;11.962;2022-07-04T00:00:45;3.15;;;1.85;;
13335;SDS011;6737;51.480;11.962;2022-07-04T00:03:11;3.53;;;1.70;;
13335;SDS011;6737;51.480;11.962;2022-07-04T00:05:37;3.80;;;1.75;;
13335;SDS011;6737;51.480;11.962;2022-07-04T00:08:03;4.00;;;1.80;;
13335;SDS011;6737;51.480;11.962;2022-07-04T00:10:29;6.70;;;1.90;;
13335;SDS011;6737;51.480;11.962;2022-07-04T00:12:55;5.72;;;1.90;;
13335;SDS011;6737;51.480;11.962;2022-07-04T00:15:22;3.22;;;1.80;;
13335;SDS011;6737;51.480;11.962;2022-07-04T00:17:47;3.67;;;1.70;;
13335;SDS011;6737;51.480;11.962;2022-07-04T00:20:13;2.72;;;1.90;;
13335;SDS011;6737;51.480;11.962;2022-07-04T00:22:39;3.67;;;1.98;;
13335;SDS011;6737;51.480;11.962;2022-07-04T00:25:05;4.20;;;1.90;;
13335;SDS011;6737;51.480;11.962;2022-07-04T00:27:32;3.53;;;1.92;;
13335;SDS011;6737;51.480;11.962;2022-07-04T00:29:58;3.22;;;1.92;;
13335;SDS011;6737;51.480;11.962;2022-07-04T00:32:23;3.17;;;2.00;;
13335;SDS011;6737;51.480;11.962;2022-07-04T00:34:49;3.45;;;2.00;;
13335;SDS011;6737;51.480;11.962;2022-07-04T00:37:15;5.37;;;2.20;;
13335;SDS011;6737;51.480;11.962;2022-07-04T00:39:40;4.63;;;2.13;;
13335;SDS011;6737;51.480;11.962;2022-07-04T00:42:07;6.55;;;2.30;;
13335;SDS011;6737;51.480;11.962;2022-07-04T00:44:33;3.67;;;2.20;;
13335;SDS011;6737;51.480;11.962;2022-07-04T00:47:02;5.47;;;2.35;;
13335;SDS011;6737;51.480;11.962;2022-07-04T00:49:29;4.20;;;2.28;;
13335;SDS011;6737;51.480;11.962;2022-07-04T00:51:55;4.60;;;2.40;;
13335;SDS011;6737;51.480;11.962;2022-07-04T00:54:21;4.13;;;2.30;;
13335;SDS011;6737;51.480;11.962;2022-07-04T00:56:52;3.57;;;2.10;;
13335;SDS011;6737;51.480;11.962;2022-07-04T00:59:19;4.13;;;2.08;;
13335;SDS011;6737;51.480;11.962;2022-07-04T01:01:45;5.90;;;2.47;;
13335;SDS011;6737;51.480;11.962;2022-07-04T01:04:11;3.75;;;2.00;;
13335;SDS011;6737;51.480;11.962;2022-07-04T01:06:37;3.75;;;2.03;;
13335;SDS011;6737;51.480;11.962;2022-07-04T01:09:04;4.57;;;2.00;;
13335;SDS011;6737;51.480;11.962;2022-07-04T01:11:30;3.97;;;2.20;;
13335;SDS011;6737;51.480;11.962;2022-07-04T01:13:56;4.53;;;2.10;;
13335;SDS011;6737;51.480;11.962;2022-07-04T01:16:26;3.80;;;2.20;;
13335;SDS011;6737;51.480;11.962;2022-07-04T01:18:53;3.58;;;2.10;;
13335;SDS011;6737;51.480;11.962;2022-07-04T01:21:20;3.22;;;1.90;;
13335;SDS011;6737;51.480;11.962;2022-07-04T01:23:47;3.05;;;2.03;;
13335;SDS011;6737;51.480;11.962;2022-07-04T01:26:13;2.83;;;1.90;;
13335;SDS011;6737;51.480;11.962;2022-07-04T01:28:39;3.65;;;1.90;;
13335;SDS011;6737;51.480;11.962;2022-07-04T01:31:05;4.53;;;2.00;;
13335;SDS011;6737;51.480;11.962;2022-07-04T01:33:32;4.97;;;2.00;;
13335;SDS011;6737;51.480;11.962;2022-07-04T01:35:59;3.63;;;2.10;;
13335;SDS011;6737;51.480;11.962;2022-07-04T01:38:25;3.95;;;2.00;;
13335;SDS011;6737;51.480;11.962;2022-07-04T01:40:51;3.22;;;2.10;;
13335;SDS011;6737;51.480;11.962;2022-07-04T01:43:17;6.57;;;2.00;;
13335;SDS011;6737;51.480;11.962;2022-07-04T01:45:43;4.78;;;1.90;;
13335;SDS011;6737;51.480;11.962;2022-07-04T01:48:10;3.42;;;2.08;;
13335;SDS011;6737;51.480;11.962;2022-07-04T01:50:37;4.93;;;2.10;;
13335;SDS011;6737;51.480;11.962;2022-07-04T01:53:04;5.00;;;2.00;;
13335;SDS011;6737;51.480;11.962;2022-07-04T01:55:30;4.70;;;2.07;;
13335;SDS011;6737;51.480;11.962;2022-07-04T01:57:57;3.15;;;1.83;;
13335;SDS011;6737;51.480;11.962;2022-07-04T02:00:23;4.20;;;1.90;;
13335;SDS011;6737;51.480;11.962;2022-07-04T02:03:08;3.43;;;1.90;;
13335;SDS011;6737;51.480;11.962;2022-07-04T02:05:34;4.60;;;2.00;;
13335;SDS011;6737;51.480;11.962;2022-07-04T02:08:03;3.38;;;2.00;;
13335;SDS011;6737;51.480;11.962;2022-07-04T02:10:30;3.95;;;2.05;;
13335;SDS011;6737;51.480;11.962;2022-07-04T02:12:56;3.63;;;1.90;;
13335;SDS011;6737;51.480;11.962;2022-07-04T02:15:29;3.72;;;1.90;;
13335;SDS011;6737;51.480;11.962;2022-07-04T02:18:01;3.67;;;1.90;;
13335;SDS011;6737;51.480;11.962;2022-07-04T02:20:28;3.33;;;2.00;;
13335;SDS011;6737;51.480;11.962;2022-07-04T02:22:54;3.25;;;1.80;;
13335;SDS011;6737;51.480;11.962;2022-07-04T02:25:21;4.40;;;1.87;;
13335;SDS011;6737;51.480;11.962;2022-07-04T02:27:47;4.38;;;1.90;;
13335;SDS011;6737;51.480;11.962;2022-07-04T02:30:12;3.50;;;1.80;;
13335;SDS011;6737;51.480;11.962;2022-07-04T02:32:39;3.40;;;1.70;;
13335;SDS011;6737;51.480;11.962;2022-07-04T02:35:05;3.63;;;1.70;;
13335;SDS011;6737;51.480;11.962;2022-07-04T02:37:32;3.43;;;1.70;;
13335;SDS011;6737;51.480;11.962;2022-07-04T02:39:58;3.70;;;1.70;;
13335;SDS011;6737;51.480;11.962;2022-07-04T02:42:28;2.20;;;1.60;;
13335;SDS011;6737;51.480;11.962;2022-07-04T02:44:58;3.60;;;1.75;;
13335;SDS011;6737;51.480;11.962;2022-07-04T02:47:24;2.67;;;1.60;;
13335;SDS011;6737;51.480;11.962;2022-07-04T02:49:50;2.87;;;1.70;;
13335;SDS011;6737;51.480;11.962;2022-07-04T02:52:16;2.20;;;1.60;;
13335;SDS011;6737;51.480;11.962;2022-07-04T02:54:42;4.17;;;1.70;;
13335;SDS011;6737;51.480;11.962;2022-07-04T02:57:10;3.50;;;1.63;;
13335;SDS011;6737;51.480;11.962;2022-07-04T02:59:36;3.22;;;1.50;;
13335;SDS011;6737;51.480;11.962;2022-07-04T03:02:02;5.50;;;1.73;;
13335;SDS011;6737;51.480;11.962;2022-07-04T03:04:28;3.15;;;1.70;;
13335;SDS011;6737;51.480;11.962;2022-07-04T03:06:53;3.65;;;1.50;;
13335;SDS011;6737;51.480;11.962;2022-07-04T03:09:19;3.50;;;1.70;;
13335;SDS011;6737;51.480;11.962;2022-07-04T03:11:45;2.40;;;1.60;;
13335;SDS011;6737;51.480;11.962;2022-07-04T03:14:11;3.75;;;1.70;;
13335;SDS011;6737;51.480;11.962;2022-07-04T03:16:37;3.13;;;1.60;;
13335;SDS011;6737;51.480;11.962;2022-07-04T03:19:03;2.70;;;1.50;;
13335;SDS011;6737;51.480;11.962;2022-07-04T03:21:29;3.03;;;1.67;;
13335;SDS011;6737;51.480;11.962;2022-07-04T03:23:55;3.80;;;1.60;;
13335;SDS011;6737;51.480;11.962;2022-07-04T03:26:27;2.50;;;1.50;;
13335;SDS011;6737;51.480;11.962;2022-07-04T03:28:55;4.00;;;1.60;;
13335;SDS011;6737;51.480;11.962;2022-07-04T03:31:23;3.65;;;1.60;;
13335;SDS011;6737;51.480;11.962;2022-07-04T03:33:49;2.95;;;1.40;;
13335;SDS011;6737;51.480;11.962;2022-07-04T03:36:16;2.70;;;1.58;;
13335;SDS011;6737;51.480;11.962;2022-07-04T03:38:46;3.07;;;1.40;;
13335;SDS011;6737;51.480;11.962;2022-07-04T03:41:12;3.90;;;1.50;;
13335;SDS011;6737;51.480;11.962;2022-07-04T03:43:38;3.93;;;1.60;;
13335;SDS011;6737;51.480;11.962;2022-07-04T03:46:04;3.00;;;1.60;;
13335;SDS011;6737;51.480;11.962;2022-07-04T03:48:30;3.50;;;1.60;;
13335;SDS011;6737;51.480;11.962;2022-07-04T03:50:56;3.50;;;1.50;;
13335;SDS011;6737;51.480;11.962;2022-07-04T03:53:23;3.28;;;1.60;;
13335;SDS011;6737;51.480;11.962;2022-07-04T03:55:49;3.07;;;1.47;;
13335;SDS011;6737;51.480;11.962;2022-07-04T03:58:15;2.50;;;1.40;;
13335;SDS011;6737;51.480;11.962;2022-07-04T04:00:41;2.17;;;1.40;;
13335;SDS011;6737;51.480;11.962;2022-07-04T04:03:07;3.78;;;1.30;;
13335;SDS011;6737;51.480;11.962;2022-07-04T04:05:53;2.73;;;1.50;;
13335;SDS011;6737;51.480;11.962;2022-07-04T04:08:19;4.72;;;1.40;;
13335;SDS011;6737;51.480;11.962;2022-07-04T04:10:45;3.45;;;1.50;;
13335;SDS011;6737;51.480;11.962;2022-07-04T04:13:11;3.97;;;1.50;;
13335;SDS011;6737;51.480;11.962;2022-07-04T04:15:37;2.90;;;1.35;;
13335;SDS011;6737;51.480;11.962;2022-07-04T04:18:03;3.53;;;1.50;;
13335;SDS011;6737;51.480;11.962;2022-07-04T04:20:29;3.17;;;1.60;;
13335;SDS011;6737;51.480;11.962;2022-07-04T04:22:54;2.40;;;1.40;;
13335;SDS011;6737;51.480;11.962;2022-07-04T04:25:20;3.50;;;1.40;;
13335;SDS011;6737;51.480;11.962;2022-07-04T04:27:46;2.60;;;1.45;;
13335;SDS011;6737;51.480;11.962;2022-07-04T04:30:12;2.50;;;1.40;;
13335;SDS011;6737;51.480;11.962;2022-07-04T04:32:38;3.08;;;1.40;;
13335;SDS011;6737;51.480;11.962;2022-07-04T04:35:04;4.10;;;1.60;;
13335;SDS011;6737;51.480;11.962;2022-07-04T04:37:30;3.60;;;1.42;;
13335;SDS011;6737;51.480;11.962;2022-07-04T04:39:56;2.63;;;1.50;;
13335;SDS011;6737;51.480;11.962;2022-07-04T04:42:21;2.00;;;1.40;;
13335;SDS011;6737;51.480;11.962;2022-07-04T04:44:47;3.17;;;1.55;;
13335;SDS011;6737;51.480;11.962;2022-07-04T04:47:13;2.53;;;1.40;;
13335;SDS011;6737;51.480;11.962;2022-07-04T04:49:39;3.47;;;1.30;;
13335;SDS011;6737;51.480;11.962;2022-07-04T04:52:05;3.15;;;1.27;;
13335;SDS011;6737;51.480;11.962;2022-07-04T04:54:31;4.60;;;1.30;;
13335;SDS011;6737;51.480;11.962;2022-07-04T04:56:58;2.50;;;1.10;;
13335;SDS011;6737;51.480;11.962;2022-07-04T04:59:24;4.97;;;1.33;;
13335;SDS011;6737;51.480;11.962;2022-07-04T05:04:16;2.95;;;1.15;;
13335;SDS011;6737;51.480;11.962;2022-07-04T05:06:42;2.58;;;1.35;;
13335;SDS011;6737;51.480;11.962;2022-07-04T05:09:08;2.20;;;1.48;;
13335;SDS011;6737;51.480;11.962;2022-07-04T05:11:34;4.07;;;1.40;;
13335;SDS011;6737;51.480;11.962;2022-07-04T05:13:59;2.20;;;1.10;;
13335;SDS011;6737;51.480;11.962;2022-07-04T05:16:25;1.95;;;1.10;;
13335;SDS011;6737;51.480;11.962;2022-07-04T05:18:51;3.30;;;1.10;;
13335;SDS011;6737;51.480;11.962;2022-07-04T05:21:16;5.07;;;1.40;;
13335;SDS011;6737;51.480;11.962;2022-07-04T05:23:42;1.63;;;1.17;;
13335;SDS011;6737;51.480;11.962;2022-07-04T05:26:08;4.00;;;1.42;;
13335;SDS011;6737;51.480;11.962;2022-07-04T05:28:34;3.22;;;1.10;;
13335;SDS011;6737;51.480;11.962;2022-07-04T05:31:00;3.30;;;1.25;;
13335;SDS011;6737;51.480;11.962;2022-07-04T05:33:26;4.10;;;1.10;;
13335;SDS011;6737;51.480;11.962;2022-07-04T05:35:51;1.77;;;1.10;;
13335;SDS011;6737;51.480;11.962;2022-07-04T05:38:17;2.72;;;1.00;;
13335;SDS011;6737;51.480;11.962;2022-07-04T05:40:43;2.40;;;1.17;;
13335;SDS011;6737;51.480;11.962;2022-07-04T05:43:09;3.75;;;1.20;;
13335;SDS011;6737;51.480;11.962;2022-07-04T05:45:37;2.80;;;1.10;;
13335;SDS011;6737;51.480;11.962;2022-07-04T05:48:03;1.80;;;1.05;;
13335;SDS011;6737;51.480;11.962;2022-07-04T05:50:29;1.83;;;1.00;;
13335;SDS011;6737;51.480;11.962;2022-07-04T05:52:54;1.83;;;1.20;;
13335;SDS011;6737;51.480;11.962;2022-07-04T05:55:20;3.05;;;1.15;;
13335;SDS011;6737;51.480;11.962;2022-07-04T05:57:46;3.30;;;1.13;;
13335;SDS011;6737;51.480;11.962;2022-07-04T06:00:12;2.53;;;1.10;;
13335;SDS011;6737;51.480;11.962;2022-07-04T06:02:38;1.88;;;1.13;;
13335;SDS011;6737;51.480;11.962;2022-07-04T06:05:04;3.35;;;1.10;;
13335;SDS011;6737;51.480;11.962;2022-07-04T06:07:30;2.05;;;1.10;;
13335;SDS011;6737;51.480;11.962;2022-07-04T06:09:56;1.52;;;1.00;;
13335;SDS011;6737;51.480;11.962;2022-07-04T06:12:22;4.32;;;1.20;;
13335;SDS011;6737;51.480;11.962;2022-07-04T06:14:48;1.30;;;1.00;;
13335;SDS011;6737;51.480;11.962;2022-07-04T06:17:14;1.75;;;1.23;;
13335;SDS011;6737;51.480;11.962;2022-07-04T06:19:39;1.70;;;1.00;;
13335;SDS011;6737;51.480;11.962;2022-07-04T06:22:05;1.48;;;1.10;;
13335;SDS011;6737;51.480;11.962;2022-07-04T06:24:31;4.32;;;1.00;;
13335;SDS011;6737;51.480;11.962;2022-07-04T06:26:57;2.08;;;1.00;;
13335;SDS011;6737;51.480;11.962;2022-07-04T06:29:22;1.55;;;0.90;;
13335;SDS011;6737;51.480;11.962;2022-07-04T06:31:48;2.35;;;1.10;;
13335;SDS011;6737;51.480;11.962;2022-07-04T06:34:14;1.38;;;0.80;;
13335;SDS011;6737;51.480;11.962;2022-07-04T06:36:58;5.68;;;1.10;;
13335;SDS011;6737;51.480;11.962;2022-07-04T06:39:24;4.13;;;1.15;;
13335;SDS011;6737;51.480;11.962;2022-07-04T06:41:50;4.40;;;1.08;;
13335;SDS011;6737;51.480;11.962;2022-07-04T06:44:15;3.35;;;1.00;;
13335;SDS011;6737;51.480;11.962;2022-07-04T06:46:41;4.82;;;1.00;;
13335;SDS011;6737;51.480;11.962;2022-07-04T06:49:09;2.92;;;1.00;;
13335;SDS011;6737;51.480;11.962;2022-07-04T06:51:35;1.17;;;1.00;;
13335;SDS011;6737;51.480;11.962;2022-07-04T06:54:01;2.63;;;0.90;;
13335;SDS011;6737;51.480;11.962;2022-07-04T06:56:27;3.45;;;1.20;;
13335;SDS011;6737;51.480;11.962;2022-07-04T06:58:53;2.30;;;0.98;;
13335;SDS011;6737;51.480;11.962;2022-07-04T07:01:19;3.13;;;0.95;;
13335;SDS011;6737;51.480;11.962;2022-07-04T07:03:45;1.77;;;1.00;;
13335;SDS011;6737;51.480;11.962;2022-07-04T07:06:10;2.45;;;1.15;;
13335;SDS011;6737;51.480;11.962;2022-07-04T07:08:36;2.95;;;0.98;;
13335;SDS011;6737;51.480;11.962;2022-07-04T07:11:02;3.72;;;1.20;;
13335;SDS011;6737;51.480;11.962;2022-07-04T07:13:43;2.10;;;1.15;;
13335;SDS011;6737;51.480;11.962;2022-07-04T07:16:11;2.70;;;1.10;;
13335;SDS011;6737;51.480;11.962;2022-07-04T07:18:38;1.83;;;1.10;;
13335;SDS011;6737;51.480;11.962;2022-07-04T07:21:04;2.30;;;1.08;;
13335;SDS011;6737;51.480;11.962;2022-07-04T07:23:30;3.55;;;1.08;;
13335;SDS011;6737;51.480;11.962;2022-07-04T07:25:56;1.90;;;1.10;;
13335;SDS011;6737;51.480;11.962;2022-07-04T07:28:21;1.65;;;1.00;;
13335;SDS011;6737;51.480;11.962;2022-07-04T07:30:47;2.95;;;1.00;;
13335;SDS011;6737;51.480;11.962;2022-07-04T07:33:13;2.00;;;0.90;;
13335;SDS011;6737;51.480;11.962;2022-07-04T07:35:39;3.28;;;1.10;;
13335;SDS011;6737;51.480;11.962;2022-07-04T07:38:05;1.25;;;0.90;;
13335;SDS011;6737;51.480;11.962;2022-07-04T07:40:32;1.77;;;0.90;;
13335;SDS011;6737;51.480;11.962;2022-07-04T07:42:58;5.07;;;0.95;;
13335;SDS011;6737;51.480;11.962;2022-07-04T07:45:24;2.85;;;1.10;;
13335;SDS011;6737;51.480;11.962;2022-07-04T07:47:50;2.45;;;1.00;;
13335;SDS011;6737;51.480;11.962;2022-07-04T07:50:16;1.73;;;1.02;;
13335;SDS011;6737;51.480;11.962;2022-07-04T07:52:42;1.67;;;0.93;;
13335;SDS011;6737;51.480;11.962;2022-07-04T07:55:07;4.32;;;1.00;;
13335;SDS011;6737;51.480;11.962;2022-07-04T07:57:33;2.40;;;1.00;;
13335;SDS011;6737;51.480;11.962;2022-07-04T07:59:59;2.00;;;0.93;;
13335;SDS011;6737;51.480;11.962;2022-07-04T08:02:25;2.65;;;0.93;;
13335;SDS011;6737;51.480;11.962;2022-07-04T08:05:10;1.85;;;0.90;;
13335;SDS011;6737;51.480;11.962;2022-07-04T08:07:36;3.08;;;1.05;;
13335;SDS011;6737;51.480;11.962;2022-07-04T08:10:03;2.13;;;1.10;;
13335;SDS011;6737;51.480;11.962;2022-07-04T08:12:29;7.47;;;1.10;;
13335;SDS011;6737;51.480;11.962;2022-07-04T08:14:55;3.03;;;1.20;;
13335;SDS011;6737;51.480;11.962;2022-07-04T08:17:21;3.95;;;1.20;;
13335;SDS011;6737;51.480;11.962;2022-07-04T08:19:46;4.25;;;1.00;;
13335;SDS011;6737;51.480;11.962;2022-07-04T08:22:13;2.55;;;1.00;;
13335;SDS011;6737;51.480;11.962;2022-07-04T08:24:39;3.58;;;1.10;;
13335;SDS011;6737;51.480;11.962;2022-07-04T08:27:05;1.25;;;0.90;;
13335;SDS011;6737;51.480;11.962;2022-07-04T08:29:31;1.50;;;0.98;;
13335;SDS011;6737;51.480;11.962;2022-07-04T08:31:57;2.65;;;0.90;;
13335;SDS011;6737;51.480;11.962;2022-07-04T08:34:23;2.65;;;1.10;;
13335;SDS011;6737;51.480;11.962;2022-07-04T08:36:49;2.15;;;1.10;;
13335;SDS011;6737;51.480;11.962;2022-07-04T08:39:15;1.95;;;0.90;;
13335;SDS011;6737;51.480;11.962;2022-07-04T08:41:42;3.67;;;1.00;;
13335;SDS011;6737;51.480;11.962;2022-07-04T08:44:09;1.60;;;0.82;;
13335;SDS011;6737;51.480;11.962;2022-07-04T08:46:39;2.15;;;0.90;;
13335;SDS011;6737;51.480;11.962;2022-07-04T08:49:10;2.88;;;0.90;;
13335;SDS011;6737;51.480;11.962;2022-07-04T08:51:52;2.00;;;1.10;;
13335;SDS011;6737;51.480;11.962;2022-07-04T08:54:25;3.50;;;0.90;;
13335;SDS011;6737;51.480;11.962;2022-07-04T08:57:10;2.70;;;1.10;;
13335;SDS011;6737;51.480;11.962;2022-07-04T08:59:56;2.83;;;1.00;;
13335;SDS011;6737;51.480;11.962;2022-07-04T09:02:23;2.22;;;1.00;;
13335;SDS011;6737;51.480;11.962;2022-07-04T09:04:52;3.47;;;0.95;;
13335;SDS011;6737;51.480;11.962;2022-07-04T09:07:19;2.45;;;1.20;;
13335;SDS011;6737;51.480;11.962;2022-07-04T09:09:45;2.95;;;1.08;;
13335;SDS011;6737;51.480;11.962;2022-07-04T09:12:11;2.10;;;1.08;;
13335;SDS011;6737;51.480;11.962;2022-07-04T09:14:39;3.35;;;1.10;;
13335;SDS011;6737;51.480;11.962;2022-07-04T09:17:05;3.63;;;1.20;;
13335;SDS011;6737;51.480;11.962;2022-07-04T09:19:31;2.65;;;1.00;;
13335;SDS011;6737;51.480;11.962;2022-07-04T09:22:01;3.40;;;1.10;;
13335;SDS011;6737;51.480;11.962;2022-07-04T09:24:48;2.80;;;1.17;;
13335;SDS011;6737;51.480;11.962;2022-07-04T09:27:37;3.03;;;1.20;;
13335;SDS011;6737;51.480;11.962;2022-07-04T09:30:05;4.85;;;1.40;;
13335;SDS011;6737;51.480;11.962;2022-07-04T09:37:42;2.85;;;1.00;;
13335;SDS011;6737;51.480;11.962;2022-07-04T09:40:28;1.73;;;1.00;;
13335;SDS011;6737;51.480;11.962;2022-07-04T09:42:56;2.88;;;1.10;;
13335;SDS011;6737;51.480;11.962;2022-07-04T09:45:24;2.58;;;1.17;;
13335;SDS011;6737;51.480;11.962;2022-07-04T09:47:53;4.90;;;1.20;;
13335;SDS011;6737;51.480;11.962;2022-07-04T09:50:21;2.70;;;1.10;;
13335;SDS011;6737;51.480;11.962;2022-07-04T09:57:54;2.40;;;1.20;;
13335;SDS011;6737;51.480;11.962;2022-07-04T10:00:23;5.97;;;1.50;;
13335;SDS011;6737;51.480;11.962;2022-07-04T10:02:52;2.28;;;0.95;;
13335;SDS011;6737;51.480;11.962;2022-07-04T10:05:21;3.05;;;1.05;;
13335;SDS011;6737;51.480;11.962;2022-07-04T10:07:48;2.20;;;1.20;;
13335;SDS011;6737;51.480;11.962;2022-07-04T10:12:51;1.30;;;1.00;;
13335;SDS011;6737;51.480;11.962;2022-07-04T10:15:19;2.33;;;1.10;;
13335;SDS011;6737;51.480;11.962;2022-07-04T10:17:46;2.00;;;1.00;;
13335;SDS011;6737;51.480;11.962;2022-07-04T10:20:13;4.53;;;1.15;;
13335;SDS011;6737;51.480;11.962;2022-07-04T10:22:39;2.55;;;1.20;;
13335;SDS011;6737;51.480;11.962;2022-07-04T10:25:06;2.28;;;1.17;;
13335;SDS011;6737;51.480;11.962;2022-07-04T10:27:33;2.33;;;1.10;;
13335;SDS011;6737;51.480;11.962;2022-07-04T10:30:01;3.70;;;1.13;;
13335;SDS011;6737;51.480;11.962;2022-07-04T10:32:29;4.93;;;1.20;;
13335;SDS011;6737;51.480;11.962;2022-07-04T10:34:55;2.55;;;1.13;;
13335;SDS011;6737;51.480;11.962;2022-07-04T10:37:21;3.28;;;1.00;;
13335;SDS011;6737;51.480;11.962;2022-07-04T10:39:47;2.58;;;1.20;;
13335;SDS011;6737;51.480;11.962;2022-07-04T10:42:23;2.22;;;1.20;;
13335;SDS011;6737;51.480;11.962;2022-07-04T10:44:50;2.28;;;1.20;;
13335;SDS011;6737;51.480;11.962;2022-07-04T10:47:25;3.83;;;1.30;;
13335;SDS011;6737;51.480;11.962;2022-07-04T10:49:55;2.13;;;1.00;;
13335;SDS011;6737;51.480;11.962;2022-07-04T10:52:21;3.63;;;1.10;;
13335;SDS011;6737;51.480;11.962;2022-07-04T10:54:47;2.40;;;1.10;;
13335;SDS011;6737;51.480;11.962;2022-07-04T10:57:17;3.05;;;1.20;;
13335;SDS011;6737;51.480;11.962;2022-07-04T11:17:59;3.83;;;1.10;;
13335;SDS011;6737;51.480;11.962;2022-07-04T11:20:26;3.53;;;1.20;;
13335;SDS011;6737;51.480;11.962;2022-07-04T11:23:10;3.80;;;1.20;;
13335;SDS011;6737;51.480;11.962;2022-07-04T11:25:43;2.47;;;1.13;;
13335;SDS011;6737;51.480;11.962;2022-07-04T11:28:23;2.08;;;1.10;;
13335;SDS011;6737;51.480;11.962;2022-07-04T11:30:51;5.18;;;1.30;;
13335;SDS011;6737;51.480;11.962;2022-07-04T11:33:19;2.08;;;1.20;;
13335;SDS011;6737;51.480;11.962;2022-07-04T11:38:49;1.90;;;1.05;;
13335;SDS011;6737;51.480;11.962;2022-07-04T11:41:24;3.72;;;1.13;;
13335;SDS011;6737;51.480;11.962;2022-07-04T11:44:14;2.50;;;1.00;;
13335;SDS011;6737;51.480;11.962;2022-07-04T11:47:01;3.53;;;1.10;;
13335;SDS011;6737;51.480;11.962;2022-07-04T11:49:30;4.13;;;1.20;;
13335;SDS011;6737;51.480;11.962;2022-07-04T11:51:55;1.92;;;1.05;;
13335;SDS011;6737;51.480;11.962;2022-07-04T11:54:21;2.95;;;0.93;;
13335;SDS011;6737;51.480;11.962;2022-07-04T11:56:48;1.33;;;1.00;;
13335;SDS011;6737;51.480;11.962;2022-07-04T11:59:14;4.13;;;1.02;;
13335;SDS011;6737;51.480;11.962;2022-07-04T12:01:41;2.60;;;1.33;;
13335;SDS011;6737;51.480;11.962;2022-07-04T12:04:15;3.33;;;1.10;;
13335;SDS011;6737;51.480;11.962;2022-07-04T12:06:44;3.70;;;1.17;;
13335;SDS011;6737;51.480;11.962;2022-07-04T12:09:12;4.82;;;1.20;;
13335;SDS011;6737;51.480;11.962;2022-07-04T12:11:53;1.88;;;0.95;;
13335;SDS011;6737;51.480;11.962;2022-07-04T12:14:22;2.28;;;1.10;;
13335;SDS011;6737;51.480;11.962;2022-07-04T12:16:48;2.88;;;1.30;;
13335;SDS011;6737;51.480;11.962;2022-07-04T12:19:15;2.70;;;1.02;;
13335;SDS011;6737;51.480;11.962;2022-07-04T12:21:43;2.45;;;1.10;;
13335;SDS011;6737;51.480;11.962;2022-07-04T12:24:09;2.97;;;1.10;;
13335;SDS011;6737;51.480;11.962;2022-07-04T12:26:48;4.00;;;1.02;;
13335;SDS011;6737;51.480;11.962;2022-07-04T12:29:23;2.42;;;1.10;;
13335;SDS011;6737;51.480;11.962;2022-07-04T12:31:52;3.13;;;1.00;;
13335;SDS011;6737;51.480;11.962;2022-07-04T12:34:18;1.50;;;0.90;;
13335;SDS011;6737;51.480;11.962;2022-07-04T12:36:52;3.33;;;1.10;;
13335;SDS011;6737;51.480;11.962;2022-07-04T12:39:52;3.65;;;1.20;;
13335;SDS011;6737;51.480;11.962;2022-07-04T12:42:15;2.53;;;0.93;;
13335;SDS011;6737;51.480;11.962;2022-07-04T12:44:43;3.67;;;1.10;;
13335;SDS011;6737;51.480;11.962;2022-07-04T12:47:10;1.40;;;1.00;;
13335;SDS011;6737;51.480;11.962;2022-07-04T12:49:41;2.08;;;0.98;;
13335;SDS011;6737;51.480;11.962;2022-07-04T12:52:12;3.25;;;0.95;;
13335;SDS011;6737;51.480;11.962;2022-07-04T12:54:43;2.35;;;1.00;;
13335;SDS011;6737;51.480;11.962;2022-07-04T12:57:27;1.55;;;0.85;;
13335;SDS011;6737;51.480;11.962;2022-07-04T12:59:53;1.45;;;0.90;;
13335;SDS011;6737;51.480;11.962;2022-07-04T13:02:19;2.77;;;0.97;;
13335;SDS011;6737;51.480;11.962;2022-07-04T13:04:45;4.57;;;1.10;;
13335;SDS011;6737;51.480;11.962;2022-07-04T13:07:12;2.37;;;1.00;;
13335;SDS011;6737;51.480;11.962;2022-07-04T13:09:42;1.95;;;1.10;;
13335;SDS011;6737;51.480;11.962;2022-07-04T13:12:09;1.88;;;0.90;;
13335;SDS011;6737;51.480;11.962;2022-07-04T13:14:54;2.10;;;0.80;;
13335;SDS011;6737;51.480;11.962;2022-07-04T13:17:21;3.08;;;1.00;;
13335;SDS011;6737;51.480;11.962;2022-07-04T13:19:49;7.38;;;1.92;;
13335;SDS011;6737;51.480;11.962;2022-07-04T13:22:18;5.70;;;1.50;;
13335;SDS011;6737;51.480;11.962;2022-07-04T13:24:47;4.70;;;1.30;;
13335;SDS011;6737;51.480;11.962;2022-07-04T13:27:14;4.13;;;1.00;;
13335;SDS011;6737;51.480;11.962;2022-07-04T13:29:41;3.63;;;1.10;;
13335;SDS011;6737;51.480;11.962;2022-07-04T13:32:07;3.38;;;1.10;;
13335;SDS011;6737;51.480;11.962;2022-07-04T13:34:34;3.47;;;0.82;;
13335;SDS011;6737;51.480;11.962;2022-07-04T13:37:01;3.17;;;0.70;;
13335;SDS011;6737;51.480;11.962;2022-07-04T13:39:27;1.30;;;0.85;;
13335;SDS011;6737;51.480;11.962;2022-07-04T13:41:53;2.45;;;0.80;;
13335;SDS011;6737;51.480;11.962;2022-07-04T13:44:20;2.05;;;0.95;;
13335;SDS011;6737;51.480;11.962;2022-07-04T13:46:46;1.73;;;0.90;;
13335;SDS011;6737;51.480;11.962;2022-07-04T13:49:15;0.90;;;0.85;;
13335;SDS011;6737;51.480;11.962;2022-07-04T13:51:43;1.83;;;1.02;;
13335;SDS011;6737;51.480;11.962;2022-07-04T13:54:09;1.30;;;0.90;;
13335;SDS011;6737;51.480;11.962;2022-07-04T13:56:36;2.63;;;0.80;;
13335;SDS011;6737;51.480;11.962;2022-07-04T13:59:01;3.63;;;0.77;;
13335;SDS011;6737;51.480;11.962;2022-07-04T14:01:28;2.95;;;0.90;;
13335;SDS011;6737;51.480;11.962;2022-07-04T14:03:53;2.50;;;0.90;;
13335;SDS011;6737;51.480;11.962;2022-07-04T14:06:19;3.38;;;0.80;;
13335;SDS011;6737;51.480;11.962;2022-07-04T14:08:45;2.53;;;0.90;;
13335;SDS011;6737;51.480;11.962;2022-07-04T14:11:11;1.98;;;1.00;;
13335;SDS011;6737;51.480;11.962;2022-07-04T14:13:37;1.48;;;0.90;;
13335;SDS011;6737;51.480;11.962;2022-07-04T14:16:04;1.65;;;0.90;;
13335;SDS011;6737;51.480;11.962;2022-07-04T14:18:32;2.05;;;0.90;;
13335;SDS011;6737;51.480;11.962;2022-07-04T14:20:58;1.00;;;0.80;;
13335;SDS011;6737;51.480;11.962;2022-07-04T14:23:24;3.97;;;0.90;;
13335;SDS011;6737;51.480;11.962;2022-07-04T14:26:05;1.17;;;0.80;;
13335;SDS011;6737;51.480;11.962;2022-07-04T14:28:36;1.77;;;1.00;;
13335;SDS011;6737;51.480;11.962;2022-07-04T14:31:02;3.47;;;1.00;;
13335;SDS011;6737;51.480;11.962;2022-07-04T14:33:28;1.58;;;0.80;;
13335;SDS011;6737;51.480;11.962;2022-07-04T14:35:54;2.00;;;0.80;;
13335;SDS011;6737;51.480;11.962;2022-07-04T14:38:21;2.53;;;0.90;;
13335;SDS011;6737;51.480;11.962;2022-07-04T14:40:47;2.00;;;0.80;;
13335;SDS011;6737;51.480;11.962;2022-07-04T14:43:15;2.47;;;0.90;;
13335;SDS011;6737;51.480;11.962;2022-07-04T14:45:45;2.60;;;0.95;;
13335;SDS011;6737;51.480;11.962;2022-07-04T14:48:14;2.38;;;0.80;;
13335;SDS011;6737;51.480;11.962;2022-07-04T14:50:40;2.03;;;0.80;;
13335;SDS011;6737;51.480;11.962;2022-07-04T14:53:06;2.90;;;0.80;;
13335;SDS011;6737;51.480;11.962;2022-07-04T14:55:32;1.25;;;0.90;;
13335;SDS011;6737;51.480;11.962;2022-07-04T14:57:58;2.45;;;0.90;;
13335;SDS011;6737;51.480;11.962;2022-07-04T15:00:24;1.73;;;0.95;;
13335;SDS011;6737;51.480;11.962;2022-07-04T15:02:50;1.38;;;0.98;;
13335;SDS011;6737;51.480;11.962;2022-07-04T15:05:15;3.22;;;1.05;;
13335;SDS011;6737;51.480;11.962;2022-07-04T15:07:42;1.55;;;0.90;;
13335;SDS011;6737;51.480;11.962;2022-07-04T15:10:08;1.90;;;1.00;;
13335;SDS011;6737;51.480;11.962;2022-07-04T15:12:34;1.30;;;0.80;;
13335;SDS011;6737;51.480;11.962;2022-07-04T15:15:00;1.70;;;0.70;;
13335;SDS011;6737;51.480;11.962;2022-07-04T15:17:25;2.60;;;0.98;;
13335;SDS011;6737;51.480;11.962;2022-07-04T15:19:51;2.60;;;1.00;;
13335;SDS011;6737;51.480;11.962;2022-07-04T15:22:35;1.33;;;0.82;;
13335;SDS011;6737;51.480;11.962;2022-07-04T15:25:20;2.22;;;0.90;;
13335;SDS011;6737;51.480;11.962;2022-07-04T15:27:45;2.45;;;0.90;;